Thomas, OK (73669)

3:00 AM CST on February 28, 2017 (GMT -0600)
Near Thomas High School | | Change Station
Active Advisory: Fire Weather Warning

Elev 1801 ft 35.76 °N, 98.75 °W | Updated 52 seconds ago

Clear
Clear
55.9 °F
Feels Like 55.9 °F
N
8.1
Wind Variable Wind from South
Gusts 12.1 mph

Today
High -- | Low -- °F
--% Chance of Precip.
Yesterday
High -- | Low -- °F
Precip. -- in
Pressure 29.74 in
Visibility 10.0 miles
Clouds Clear
Dew Point 50 °F
Humidity 81%
Rainfall 0.00 in
Snow Depth Not available.
7:05 AM 6:29 PM
Waxing Crescent, 4% visible
METAR KOJA 280855Z AUTO 18009G14KT 10SM CLR 15/13 A2974 RMK AO2
Pressure 29.74 in
Visibility 10.0 miles
Clouds Clear
Dew Point 50 °F
Humidity 81%
Rainfall 0.00 in
Snow Depth Not available.
7:05 AM 6:29 PM
Waxing Crescent, 4% visible
METAR KOJA 280855Z AUTO 18009G14KT 10SM CLR 15/13 A2974 RMK AO2

Get Your Daily Forecast Email!

Thanks for signing up!

Be on the lookout for a verification email in your inbox.

You'll start receiving the daily forecast at 8 AM.

×

10-Day Weather Forecast

Almanac

Astronomy

Feb. 28, 2017 Rise Set
Actual Time
Civil Twilight
Nautical Twilight
Astronomical Twilight
Moon
Length of Visible Light
Length of Day
Tomorrow will be .
, % of the Moon is Illuminated

Today's Extremes

State Highs State Lows

Community

WunderPhotos

Upload Photos

1,962,540 photos uploaded!

WunderBlog® & News

Nearby

Air Quality

  Air Quality AQ Index Pollutant
Not available.

Snow Depth

Station Depth Elevation

Earthquake Activity

City Distance Mag. Time & Date
Minimum magnitude displayed is 2.5.

Coastal Water Temperatures

Place Temperature

Stations

Nearby Weather Stations

Station Location Temp. Windchill Dew Point Humidity Wind Precip. Elev Updated Type
                   

Watches & Warnings

Fire Weather Warning
Issued: 3:35 PM CST Feb. 27, 2017 – National Weather Service

... Red flag warning in effect from noon to 9 PM CST Tuesday for
for windy conditions... warm temperatures and low relative
humidity for western Oklahoma and western North Texas...

The National Weather Service in Norman has issued a red flag
warning, which is in effect from noon to 9 PM CST Tuesday. The
Fire Weather Watch is no longer in effect.

* Timing... Tuesday afternoon through Tuesday evening.

* Wind... southwest at 25 to 35 mph, with gusts to 50 mph.

* Humidity... 10 to 20 percent.

* Temperature... mid 70s to low 80s.

* Impacts... any fires that develop will likely spread rapidly.
Outdoor burning is not recommended.

* Other impacts... a wind shift will move across the area Tuesday
evening into Tuesday night with northwest winds 15-25 mph and
higher gusts. This could cause problems to any ongoing
firefighting efforts.

Precautionary/preparedness actions...

A red flag warning means that critical fire weather conditions
are either occurring now, or will shortly. A combination of
strong winds, low relative humidity, and warm temperatures can
contribute to extreme fire behavior.